createdAt,value
2018-12-17T00:00:17.836Z,0.00
2018-12-17T00:01:18.334Z,0.00
2018-12-17T00:02:18.264Z,0.00
2018-12-17T00:03:17.727Z,0.00
2018-12-17T00:04:18.259Z,0.00
2018-12-17T00:05:17.661Z,0.00
2018-12-17T00:06:17.675Z,0.00
2018-12-17T00:07:18.261Z,0.00
2018-12-17T00:08:17.544Z,0.00
2018-12-17T00:09:18.270Z,0.00
2018-12-17T00:10:17.479Z,0.00
2018-12-17T00:11:17.498Z,0.00
2018-12-17T00:12:17.406Z,0.00
2018-12-17T00:13:17.407Z,0.00
2018-12-17T00:14:18.264Z,0.00
2018-12-17T00:15:17.294Z,0.00
2018-12-17T00:16:17.829Z,0.00
2018-12-17T00:17:17.318Z,0.00
2018-12-17T00:18:17.235Z,0.00
2018-12-17T00:19:17.150Z,0.00
2018-12-17T00:20:17.765Z,0.00
2018-12-17T00:21:17.761Z,0.00
2018-12-17T00:22:17.041Z,0.00
2018-12-17T00:23:17.327Z,0.00
2018-12-17T00:24:17.767Z,0.00
2018-12-17T00:25:17.793Z,0.00
2018-12-17T00:26:17.776Z,0.00
2018-12-17T00:27:16.936Z,0.00
2018-12-17T00:28:16.831Z,0.00
2018-12-17T00:29:16.894Z,0.00
2018-12-17T00:30:16.812Z,0.00
2018-12-17T00:31:16.726Z,0.00
2018-12-17T00:32:17.281Z,0.00
2018-12-17T00:33:16.731Z,0.00
2018-12-17T00:34:16.638Z,0.00
2018-12-17T00:35:17.283Z,0.00
2018-12-17T00:36:16.544Z,0.00
2018-12-17T00:37:17.274Z,0.00
2018-12-17T00:38:16.860Z,0.00
2018-12-17T00:39:17.278Z,0.00
2018-12-17T00:40:16.402Z,0.00
2018-12-17T00:41:16.375Z,0.00
2018-12-17T00:42:16.364Z,0.00
2018-12-17T00:43:17.670Z,0.00
2018-12-17T00:44:16.273Z,0.00
2018-12-17T00:45:16.226Z,0.00
2018-12-17T00:46:16.179Z,0.00
2018-12-17T00:47:16.777Z,0.00
2018-12-17T00:48:16.157Z,0.00
2018-12-17T00:49:17.181Z,0.00
2018-12-17T00:50:16.065Z,0.00
2018-12-17T00:51:16.777Z,0.00
2018-12-17T00:52:15.993Z,0.00
2018-12-17T00:53:16.863Z,0.00
2018-12-17T00:54:15.947Z,0.00
2018-12-17T00:55:16.778Z,0.00
2018-12-17T00:56:15.814Z,0.00
2018-12-17T00:57:16.674Z,0.00
2018-12-17T00:58:15.756Z,0.00
2018-12-17T00:59:16.284Z,0.00
2018-12-17T01:00:15.727Z,0.00
2018-12-17T01:01:15.667Z,0.00
2018-12-17T01:02:15.646Z,0.00
2018-12-17T01:03:15.582Z,0.00
2018-12-17T01:04:15.550Z,0.00
2018-12-17T01:05:15.851Z,0.00
2018-12-17T01:06:15.461Z,0.00
2018-12-17T01:07:15.433Z,0.00
2018-12-17T01:08:15.397Z,0.00
2018-12-17T01:09:15.390Z,0.00
2018-12-17T01:10:15.360Z,0.00
2018-12-17T01:11:15.382Z,0.00
2018-12-17T01:12:15.295Z,0.00
2018-12-17T01:13:15.224Z,0.00
2018-12-17T01:14:15.183Z,0.00
2018-12-17T01:15:15.776Z,0.00
2018-12-17T01:16:15.355Z,0.00
2018-12-17T01:17:15.086Z,0.00
2018-12-17T01:18:15.028Z,0.00
2018-12-17T01:19:15.057Z,0.00
2018-12-17T01:20:15.031Z,0.00
2018-12-17T01:21:15.031Z,0.00
2018-12-17T01:22:14.932Z,0.00
2018-12-17T01:23:15.796Z,0.00
2018-12-17T01:24:14.815Z,0.00
2018-12-17T01:25:15.769Z,0.00
2018-12-17T01:26:14.880Z,0.00
2018-12-17T01:27:14.737Z,0.00
2018-12-17T01:28:14.675Z,0.00
2018-12-17T01:29:14.665Z,0.00
2018-12-17T01:30:14.706Z,0.00
2018-12-17T01:31:14.838Z,0.00
2018-12-17T01:32:15.291Z,0.00
2018-12-17T01:33:14.583Z,0.00
2018-12-17T01:34:14.530Z,0.00
2018-12-17T01:35:15.276Z,0.00
2018-12-17T01:36:14.418Z,0.00
2018-12-17T01:37:14.407Z,0.00
2018-12-17T01:38:14.324Z,0.00
2018-12-17T01:39:15.281Z,0.00
2018-12-17T01:40:14.764Z,0.00
2018-12-17T01:41:14.206Z,0.00
2018-12-17T01:42:14.217Z,0.00
2018-12-17T01:43:14.142Z,0.00
2018-12-17T01:44:14.103Z,0.00
2018-12-17T01:45:14.062Z,0.00
2018-12-17T01:46:14.030Z,0.00
2018-12-17T01:47:14.050Z,0.00
2018-12-17T01:48:13.992Z,0.00
2018-12-17T01:49:14.766Z,0.00
2018-12-17T01:50:14.767Z,0.00
2018-12-17T01:51:13.845Z,0.00
2018-12-17T01:52:13.819Z,0.00
2018-12-17T01:53:13.812Z,0.00
2018-12-17T01:54:13.734Z,0.00
2018-12-17T01:55:13.703Z,0.00
2018-12-17T01:56:13.701Z,0.00
2018-12-17T01:57:13.632Z,0.00
2018-12-17T01:58:13.651Z,0.00
2018-12-17T01:59:13.552Z,0.00
2018-12-17T02:00:13.513Z,0.00
2018-12-17T02:01:14.269Z,0.00
2018-12-17T02:02:13.446Z,0.00
2018-12-17T02:03:13.837Z,0.00
2018-12-17T02:04:14.277Z,0.00
2018-12-17T02:05:13.334Z,0.00
2018-12-17T02:06:14.268Z,0.00
2018-12-17T02:07:13.257Z,0.00
2018-12-17T02:08:13.267Z,0.00
2018-12-17T02:09:13.196Z,0.00
2018-12-17T02:10:13.154Z,0.00
2018-12-17T02:11:13.116Z,0.00
2018-12-17T02:12:13.168Z,0.00
2018-12-17T02:13:13.041Z,0.00
2018-12-17T02:14:13.050Z,0.00
2018-12-17T02:15:12.966Z,0.00
2018-12-17T02:16:12.946Z,0.00
2018-12-17T02:17:12.941Z,0.00
2018-12-17T02:18:12.865Z,0.00
2018-12-17T02:19:12.955Z,0.00
2018-12-17T02:20:12.791Z,0.00
2018-12-17T02:21:13.265Z,0.00
2018-12-17T02:22:12.832Z,0.00
2018-12-17T02:23:12.824Z,0.00
2018-12-17T02:24:12.677Z,0.00
2018-12-17T02:25:12.644Z,0.00
2018-12-17T02:26:12.554Z,0.00
2018-12-17T02:27:12.526Z,0.00
2018-12-17T02:28:12.538Z,0.00
2018-12-17T02:29:12.458Z,0.00
2018-12-17T02:30:12.452Z,0.00
2018-12-17T02:31:12.450Z,0.00
2018-12-17T02:32:12.332Z,0.00
2018-12-17T02:33:12.303Z,0.00
2018-12-17T02:34:12.315Z,0.00
2018-12-17T02:35:12.225Z,0.00
2018-12-17T02:36:12.190Z,0.00
2018-12-17T02:37:12.151Z,0.00
2018-12-17T02:38:12.124Z,0.00
2018-12-17T02:39:12.139Z,0.00
2018-12-17T02:40:12.068Z,0.00
2018-12-17T02:41:12.005Z,0.00
2018-12-17T02:42:11.969Z,0.00
2018-12-17T02:43:11.929Z,0.00
2018-12-17T02:44:11.944Z,0.00
2018-12-17T02:45:11.848Z,0.00
2018-12-17T02:46:11.821Z,0.00
2018-12-17T02:47:11.778Z,0.00
2018-12-17T02:48:11.743Z,0.00
2018-12-17T02:49:11.824Z,0.00
2018-12-17T02:50:11.845Z,0.00
2018-12-17T02:51:12.312Z,0.00
2018-12-17T02:52:12.281Z,0.00
2018-12-17T02:53:12.271Z,0.00
2018-12-17T02:54:12.269Z,0.00
2018-12-17T02:55:11.686Z,0.00
2018-12-17T02:56:11.456Z,0.00
2018-12-17T02:57:11.409Z,0.00
2018-12-17T02:58:11.371Z,0.00
2018-12-17T02:59:11.340Z,0.00
2018-12-17T03:00:11.843Z,0.00
2018-12-17T03:01:11.309Z,0.00
2018-12-17T03:02:11.268Z,0.00
2018-12-17T03:03:11.192Z,0.00
2018-12-17T03:04:11.147Z,0.00
2018-12-17T03:05:11.224Z,0.00
2018-12-17T03:06:11.193Z,0.00
2018-12-17T03:07:11.080Z,0.00
2018-12-17T03:08:11.777Z,0.00
2018-12-17T03:09:10.971Z,0.00
2018-12-17T03:10:11.677Z,0.00
2018-12-17T03:11:10.940Z,0.00
2018-12-17T03:12:10.861Z,0.00
2018-12-17T03:13:10.877Z,0.00
2018-12-17T03:14:10.787Z,0.00
2018-12-17T03:15:10.851Z,0.00
2018-12-17T03:16:10.831Z,0.00
2018-12-17T03:17:10.674Z,0.00
2018-12-17T03:18:11.272Z,0.00
2018-12-17T03:19:10.604Z,0.00
2018-12-17T03:20:10.606Z,0.00
2018-12-17T03:21:10.592Z,0.00
2018-12-17T03:22:10.513Z,0.00
2018-12-17T03:23:10.528Z,0.00
2018-12-17T03:24:11.294Z,0.00
2018-12-17T03:25:10.384Z,0.00
2018-12-17T03:26:10.492Z,0.00
2018-12-17T03:27:10.315Z,0.00
2018-12-17T03:28:10.305Z,0.00
2018-12-17T03:29:10.244Z,0.00
2018-12-17T03:30:10.211Z,0.00
2018-12-17T03:31:10.428Z,0.00
2018-12-17T03:32:10.138Z,0.00
2018-12-17T03:33:10.095Z,0.00
2018-12-17T03:34:10.103Z,0.00
2018-12-17T03:35:10.026Z,0.00
2018-12-17T03:36:10.093Z,0.00
2018-12-17T03:37:09.950Z,0.00
2018-12-17T03:38:09.923Z,0.00
2018-12-17T03:39:09.879Z,0.00
2018-12-17T03:40:09.884Z,0.00
2018-12-17T03:41:09.888Z,0.00
2018-12-17T03:42:09.789Z,0.00
2018-12-17T03:43:09.791Z,0.00
2018-12-17T03:44:09.703Z,0.00
2018-12-17T03:45:09.667Z,0.00
2018-12-17T03:46:10.275Z,0.00
2018-12-17T03:47:09.645Z,0.00
2018-12-17T03:48:09.622Z,0.00
2018-12-17T03:49:09.523Z,0.00
2018-12-17T03:50:10.275Z,0.00
2018-12-17T03:51:10.287Z,0.00
2018-12-17T03:52:09.418Z,0.00
2018-12-17T03:53:09.961Z,0.00
2018-12-17T03:54:12.274Z,0.00
2018-12-17T03:55:09.316Z,0.00
2018-12-17T03:56:09.781Z,0.00
2018-12-17T03:57:09.234Z,0.00
2018-12-17T03:58:09.342Z,0.00
2018-12-17T03:59:09.191Z,0.00
2018-12-17T04:00:09.122Z,0.00
2018-12-17T04:01:09.789Z,0.00
2018-12-17T04:02:09.050Z,0.00
2018-12-17T04:03:09.328Z,0.00
2018-12-17T04:04:08.981Z,0.00
2018-12-17T04:05:09.802Z,0.00
2018-12-17T04:06:08.913Z,0.00
2018-12-17T04:07:08.878Z,0.00
2018-12-17T04:08:08.882Z,0.00
2018-12-17T04:09:08.852Z,0.00
2018-12-17T04:10:08.767Z,0.00
2018-12-17T04:11:08.729Z,0.00
2018-12-17T04:12:08.696Z,0.00
2018-12-17T04:13:08.656Z,0.00
2018-12-17T04:14:08.666Z,0.00
2018-12-17T04:15:08.582Z,0.00
2018-12-17T04:16:08.561Z,0.00
2018-12-17T04:17:09.274Z,0.00
2018-12-17T04:18:08.521Z,0.00
2018-12-17T04:19:08.444Z,0.00
2018-12-17T04:20:08.827Z,0.00
2018-12-17T04:21:09.274Z,0.00
2018-12-17T04:22:09.274Z,0.00
2018-12-17T04:23:09.302Z,0.00
2018-12-17T04:24:08.262Z,0.00
2018-12-17T04:25:08.271Z,0.00
2018-12-17T04:26:08.189Z,0.00
2018-12-17T04:27:08.154Z,0.00
2018-12-17T04:28:15.181Z,0.00
2018-12-17T04:29:19.683Z,0.00
2018-12-17T04:30:08.046Z,0.00
2018-12-17T04:31:08.365Z,0.00
2018-12-17T04:32:07.976Z,0.00
2018-12-17T04:33:08.774Z,0.00
2018-12-17T04:34:08.328Z,0.00
2018-12-17T04:35:07.874Z,0.00
2018-12-17T04:36:08.379Z,0.00
2018-12-17T04:37:07.965Z,0.00
2018-12-17T04:38:07.772Z,0.00
2018-12-17T04:39:08.275Z,0.00
2018-12-17T04:40:07.694Z,0.00
2018-12-17T04:41:07.771Z,0.00
2018-12-17T04:42:07.689Z,0.00
2018-12-17T04:43:08.276Z,0.00
2018-12-17T04:44:07.596Z,0.00
2018-12-17T04:45:07.602Z,0.00
2018-12-17T04:46:07.990Z,0.00
2018-12-17T04:47:07.446Z,0.00
2018-12-17T04:48:07.403Z,0.00
2018-12-17T04:49:07.370Z,0.00
2018-12-17T04:50:07.348Z,0.00
2018-12-17T04:51:08.348Z,0.00
2018-12-17T04:52:07.311Z,0.00
2018-12-17T04:53:07.227Z,0.00
2018-12-17T04:54:07.234Z,0.00
2018-12-17T04:55:07.779Z,0.00
2018-12-17T04:56:07.134Z,0.00
2018-12-17T04:57:07.355Z,0.00
2018-12-17T04:58:07.110Z,0.00
2018-12-17T04:59:14.365Z,0.00
2018-12-17T05:00:07.780Z,0.00
2018-12-17T05:01:08.163Z,0.00
2018-12-17T05:02:07.777Z,0.00
2018-12-17T05:03:07.344Z,0.00
2018-12-17T05:04:07.780Z,0.00
2018-12-17T05:05:07.782Z,0.00
2018-12-17T05:06:07.281Z,0.00
2018-12-17T05:07:07.288Z,0.00
2018-12-17T05:08:06.835Z,0.00
2018-12-17T05:09:07.287Z,0.00
2018-12-17T05:10:07.280Z,0.00
2018-12-17T05:11:06.585Z,0.00
2018-12-17T05:12:06.593Z,0.00
2018-12-17T05:13:06.566Z,0.00
2018-12-17T05:14:06.483Z,0.00
2018-12-17T05:15:07.283Z,0.00
2018-12-17T05:16:06.418Z,0.00
2018-12-17T05:17:06.427Z,0.00
2018-12-17T05:18:07.301Z,0.00
2018-12-17T05:19:06.840Z,0.00
2018-12-17T05:20:06.789Z,0.00
2018-12-17T05:21:06.781Z,0.00
2018-12-17T05:22:06.781Z,0.00
2018-12-17T05:23:06.779Z,0.00
2018-12-17T05:24:06.328Z,0.00
2018-12-17T05:25:06.786Z,0.00
2018-12-17T05:26:06.780Z,0.00
2018-12-17T05:27:06.334Z,0.00
2018-12-17T05:28:06.781Z,0.00
2018-12-17T05:29:06.780Z,0.00
2018-12-17T05:30:05.906Z,0.00
2018-12-17T05:31:05.896Z,0.00
2018-12-17T05:32:06.333Z,0.00
2018-12-17T05:33:05.801Z,0.00
2018-12-17T05:34:05.808Z,0.00
2018-12-17T05:35:05.798Z,0.00
2018-12-17T05:36:05.691Z,0.00
2018-12-17T05:37:05.652Z,0.00
2018-12-17T05:38:05.763Z,0.00
2018-12-17T05:39:05.589Z,0.00
2018-12-17T05:40:05.552Z,0.00
2018-12-17T05:41:05.528Z,0.00
2018-12-17T05:42:05.478Z,0.00
2018-12-17T05:43:05.484Z,0.00
2018-12-17T05:44:06.188Z,0.00
2018-12-17T05:45:05.376Z,0.00
2018-12-17T05:46:05.335Z,0.00
2018-12-17T05:47:06.448Z,0.00
2018-12-17T05:48:05.362Z,0.00
2018-12-17T05:49:05.231Z,0.00
2018-12-17T05:50:05.777Z,0.00
2018-12-17T05:51:05.189Z,0.00
2018-12-17T05:52:05.119Z,0.00
2018-12-17T05:53:05.143Z,0.00
2018-12-17T05:54:05.046Z,0.00
2018-12-17T05:55:05.014Z,0.00
2018-12-17T05:56:04.979Z,0.00
2018-12-17T05:57:05.002Z,0.00
2018-12-17T05:58:04.974Z,0.00
2018-12-17T05:59:04.874Z,0.00
2018-12-17T06:00:04.836Z,0.00
2018-12-17T06:01:04.799Z,0.00
2018-12-17T06:02:04.763Z,0.00
2018-12-17T06:03:04.799Z,0.00
2018-12-17T06:04:04.691Z,0.00
2018-12-17T06:05:04.661Z,0.00
2018-12-17T06:06:04.629Z,0.00
2018-12-17T06:07:05.280Z,0.00
2018-12-17T06:08:04.609Z,0.00
2018-12-17T06:09:04.559Z,0.00
2018-12-17T06:10:04.478Z,0.00
2018-12-17T06:11:04.449Z,0.00
2018-12-17T06:12:04.412Z,4.00
2018-12-17T06:13:04.837Z,4.00
2018-12-17T06:14:04.392Z,0.00
2018-12-17T06:15:04.299Z,0.00
2018-12-17T06:16:04.306Z,0.00
2018-12-17T06:17:04.242Z,0.00
2018-12-17T06:18:04.194Z,0.00
2018-12-17T06:19:04.208Z,0.00
2018-12-17T06:20:04.123Z,0.00
2018-12-17T06:21:04.081Z,0.00
2018-12-17T06:22:04.089Z,0.00
2018-12-17T06:23:04.014Z,0.00
2018-12-17T06:24:04.020Z,0.00
2018-12-17T06:25:03.944Z,0.00
2018-12-17T06:26:03.913Z,0.00
2018-12-17T06:27:04.330Z,0.00
2018-12-17T06:28:03.837Z,0.00
2018-12-17T06:29:03.844Z,0.00
2018-12-17T06:30:03.807Z,0.00
2018-12-17T06:31:04.288Z,0.00
2018-12-17T06:32:03.739Z,0.00
2018-12-17T06:33:03.659Z,0.00
2018-12-17T06:34:03.620Z,0.00
2018-12-17T06:35:03.587Z,0.00
2018-12-17T06:36:03.834Z,0.00
2018-12-17T06:37:03.518Z,4.00
2018-12-17T06:38:03.486Z,4.00
2018-12-17T06:39:03.495Z,4.00
2018-12-17T06:40:10.041Z,0.00
2018-12-17T06:41:03.372Z,4.00
2018-12-17T06:42:04.277Z,4.00
2018-12-17T06:43:03.303Z,4.00
2018-12-17T06:44:06.190Z,4.00
2018-12-17T06:45:03.276Z,8.00
2018-12-17T06:46:03.196Z,8.00
2018-12-17T06:47:03.345Z,8.00
2018-12-17T06:48:03.786Z,8.00
2018-12-17T06:49:03.131Z,12.00
2018-12-17T06:50:03.058Z,12.00
2018-12-17T06:51:03.017Z,16.00
2018-12-17T06:52:03.043Z,16.00
2018-12-17T06:53:02.958Z,20.00
2018-12-17T06:54:02.922Z,28.00
2018-12-17T06:55:02.927Z,28.00
2018-12-17T06:56:03.783Z,32.00
2018-12-17T06:57:03.334Z,36.00
2018-12-17T06:58:03.287Z,44.00
2018-12-17T06:59:02.731Z,44.00
2018-12-17T07:00:02.696Z,48.00
2018-12-17T07:01:02.659Z,52.00
2018-12-17T07:02:02.683Z,56.00
2018-12-17T07:03:02.593Z,64.00
2018-12-17T07:04:02.569Z,68.00
2018-12-17T07:05:02.520Z,76.00
2018-12-17T07:06:02.484Z,88.00
2018-12-17T07:07:02.871Z,96.00
2018-12-17T07:08:02.455Z,104.00
2018-12-17T07:09:02.382Z,116.00
2018-12-17T07:10:02.344Z,124.00
2018-12-17T07:11:02.309Z,140.00
2018-12-17T07:12:02.277Z,152.00
2018-12-17T07:13:02.284Z,164.00
2018-12-17T07:14:02.223Z,180.00
2018-12-17T07:15:02.167Z,196.00
2018-12-17T07:16:02.129Z,216.00
2018-12-17T07:17:02.095Z,236.00
2018-12-17T07:18:02.108Z,252.00
2018-12-17T07:19:02.029Z,272.00
2018-12-17T07:20:01.991Z,288.00
2018-12-17T07:21:02.798Z,308.00
2018-12-17T07:22:01.957Z,324.00
2018-12-17T07:23:01.947Z,344.00
2018-12-17T07:24:01.852Z,364.00
2018-12-17T07:25:01.815Z,376.00
2018-12-17T07:26:01.779Z,388.00
2018-12-17T07:27:01.769Z,404.00
2018-12-17T07:28:01.775Z,416.00
2018-12-17T07:29:01.678Z,432.00
2018-12-17T07:30:02.314Z,452.00
2018-12-17T07:31:01.600Z,472.00
2018-12-17T07:32:01.562Z,496.00
2018-12-17T07:33:01.603Z,524.00
2018-12-17T07:34:02.286Z,544.00
2018-12-17T07:35:01.492Z,544.00
2018-12-17T07:36:01.427Z,556.00
2018-12-17T07:37:01.387Z,564.00
2018-12-17T07:38:01.397Z,564.00
2018-12-17T07:39:01.439Z,568.00
2018-12-17T07:40:01.291Z,572.00
2018-12-17T07:41:01.848Z,596.00
2018-12-17T07:42:01.210Z,608.00
2018-12-17T07:43:01.175Z,616.00
2018-12-17T07:44:01.212Z,628.00
2018-12-17T07:45:01.118Z,648.00
2018-12-17T07:46:01.799Z,668.00
2018-12-17T07:47:01.038Z,692.00
2018-12-17T07:48:01.004Z,728.00
2018-12-17T07:49:01.000Z,764.00
2018-12-17T07:50:00.926Z,808.00
2018-12-17T07:51:00.892Z,844.00
2018-12-17T07:52:00.890Z,872.00
2018-12-17T07:53:00.824Z,900.00
2018-12-17T07:54:00.866Z,940.00
2018-12-17T07:55:00.756Z,968.00
2018-12-17T07:56:00.715Z,1000.00
2018-12-17T07:57:00.683Z,1040.00
2018-12-17T07:58:01.285Z,1096.00
2018-12-17T07:59:00.685Z,1144.00
2018-12-17T08:00:00.577Z,1168.00
2018-12-17T08:01:00.544Z,1176.00
2018-12-17T08:02:00.511Z,1248.00
2018-12-17T08:03:00.479Z,1300.00
2018-12-17T08:04:00.483Z,1324.00
2018-12-17T08:05:00.403Z,1368.00
2018-12-17T08:06:00.365Z,1480.00
2018-12-17T08:07:00.512Z,1588.00
2018-12-17T08:08:00.361Z,1672.00
2018-12-17T08:09:00.257Z,1752.00
2018-12-17T08:10:00.224Z,1812.00
2018-12-17T08:11:00.241Z,1844.00
2018-12-17T08:12:00.153Z,1876.00
2018-12-17T08:13:00.182Z,1920.00
2018-12-17T08:14:00.088Z,1960.00
2018-12-17T08:15:00.048Z,1980.00
2018-12-17T08:16:00.059Z,1976.00
2018-12-17T08:16:59.979Z,1964.00
2018-12-17T08:18:00.005Z,1952.00
2018-12-17T08:18:59.919Z,1904.00
2018-12-17T08:19:59.925Z,1864.00
2018-12-17T08:20:59.843Z,1832.00
2018-12-17T08:21:59.805Z,1812.00
2018-12-17T08:22:59.828Z,1848.00
2018-12-17T08:23:59.755Z,1876.00
2018-12-17T08:24:59.747Z,1868.00
2018-12-17T08:25:59.666Z,1836.00
2018-12-17T08:26:59.634Z,1812.00
2018-12-17T08:27:59.657Z,1828.00
2018-12-17T08:28:59.567Z,1872.00
2018-12-17T08:30:03.832Z,1932.00
2018-12-17T08:30:59.490Z,1964.00
2018-12-17T08:31:59.455Z,2024.00
2018-12-17T08:32:59.472Z,2152.00
2018-12-17T08:33:59.452Z,2272.00
2018-12-17T08:34:59.351Z,2328.00
2018-12-17T08:35:59.324Z,2284.00
2018-12-17T08:36:59.284Z,2204.00
2018-12-17T08:37:59.295Z,2144.00
2018-12-17T08:38:59.292Z,2140.00
2018-12-17T08:39:59.190Z,2188.00
2018-12-17T08:40:59.145Z,2240.00
2018-12-17T08:41:59.789Z,2260.00
2018-12-17T08:42:59.076Z,2260.00
2018-12-17T08:43:59.103Z,2284.00
2018-12-17T08:44:59.793Z,2336.00
2018-12-17T08:45:58.977Z,2400.00
2018-12-17T08:46:58.936Z,2468.00
2018-12-17T08:47:58.905Z,2500.00
2018-12-17T08:48:59.001Z,2460.00
2018-12-17T08:49:58.846Z,2416.00
2018-12-17T08:50:58.801Z,2444.00
2018-12-17T08:51:58.812Z,2476.00
2018-12-17T08:52:58.734Z,2512.00
2018-12-17T08:53:58.695Z,2544.00
2018-12-17T08:54:58.708Z,2512.00
2018-12-17T08:55:58.635Z,2440.00
2018-12-17T08:56:58.592Z,2404.00
2018-12-17T08:57:58.605Z,2448.00
2018-12-17T08:58:58.528Z,2456.00
2018-12-17T08:59:58.486Z,2392.00
2018-12-17T09:00:58.459Z,2384.00
2018-12-17T09:01:58.423Z,2432.00
2018-12-17T09:02:58.430Z,2516.00
2018-12-17T09:03:58.353Z,2620.00
2018-12-17T09:04:58.361Z,2624.00
2018-12-17T09:05:58.286Z,2576.00
2018-12-17T09:06:58.250Z,2580.00
2018-12-17T09:07:58.259Z,2636.00
2018-12-17T09:08:58.200Z,2652.00
2018-12-17T09:09:58.185Z,2616.00
2018-12-17T09:10:58.113Z,2608.00
2018-12-17T09:11:58.081Z,2600.00
2018-12-17T09:12:58.376Z,2548.00
2018-12-17T09:13:58.040Z,2608.00
2018-12-17T09:14:57.976Z,2804.00
2018-12-17T09:15:57.946Z,2960.00
2018-12-17T09:16:57.907Z,2844.00
2018-12-17T09:17:57.926Z,2624.00
2018-12-17T09:18:57.837Z,2476.00
2018-12-17T09:19:57.852Z,2472.00
2018-12-17T09:20:57.771Z,2472.00
2018-12-17T09:21:57.741Z,2432.00
2018-12-17T09:22:57.704Z,2468.00
2018-12-17T09:23:57.725Z,2548.00
2018-12-17T09:24:57.690Z,2620.00
2018-12-17T09:25:57.617Z,2716.00
2018-12-17T09:26:57.681Z,2860.00
2018-12-17T09:27:57.534Z,2980.00
2018-12-17T09:28:57.600Z,3132.00
2018-12-17T09:29:57.466Z,3184.00
2018-12-17T09:30:57.489Z,3116.00
2018-12-17T09:31:57.396Z,3044.00
2018-12-17T09:32:57.394Z,2952.00
2018-12-17T09:33:57.384Z,2900.00
2018-12-17T09:34:57.301Z,2984.00
2018-12-17T09:35:57.309Z,3152.00
2018-12-17T09:36:57.228Z,3472.00
2018-12-17T09:37:57.236Z,3648.00
2018-12-17T09:38:57.216Z,3636.00
2018-12-17T09:39:57.144Z,3664.00
2018-12-17T09:40:57.144Z,3540.00
2018-12-17T09:41:57.059Z,3348.00
2018-12-17T09:42:57.030Z,3336.00
2018-12-17T09:43:57.055Z,3356.00
2018-12-17T09:44:56.964Z,3444.00
2018-12-17T09:45:56.930Z,3556.00
2018-12-17T09:46:56.888Z,3640.00
2018-12-17T09:47:56.854Z,3648.00
2018-12-17T09:48:56.862Z,3752.00
2018-12-17T09:49:56.791Z,3952.00
2018-12-17T09:50:56.807Z,4248.00
2018-12-17T09:51:57.298Z,4480.00
2018-12-17T09:52:56.690Z,4600.00
2018-12-17T09:53:56.798Z,4712.00
2018-12-17T09:54:56.681Z,4840.00
2018-12-17T09:55:56.636Z,4816.00
2018-12-17T09:56:56.554Z,4600.00
2018-12-17T09:57:57.311Z,4356.00
2018-12-17T09:58:56.497Z,4336.00
2018-12-17T09:59:56.456Z,4492.00
2018-12-17T10:00:56.463Z,4588.00
2018-12-17T10:01:56.378Z,4596.00
2018-12-17T10:02:56.926Z,4536.00
2018-12-17T10:03:57.380Z,4400.00
2018-12-17T10:04:56.288Z,4228.00
2018-12-17T10:05:56.264Z,4096.00
2018-12-17T10:06:56.212Z,4000.00
2018-12-17T10:07:56.231Z,3892.00
2018-12-17T10:08:56.148Z,3772.00
2018-12-17T10:09:56.115Z,3660.00
2018-12-17T10:10:56.079Z,3620.00
2018-12-17T10:11:56.043Z,3600.00
2018-12-17T10:12:56.196Z,3456.00
2018-12-17T10:13:56.712Z,3292.00
2018-12-17T10:14:55.952Z,3132.00
2018-12-17T10:15:56.374Z,2912.00
2018-12-17T10:16:55.881Z,2736.00
2018-12-17T10:17:56.799Z,2744.00
2018-12-17T10:18:56.814Z,2880.00
2018-12-17T10:19:55.787Z,3124.00
2018-12-17T10:20:55.811Z,3476.00
2018-12-17T10:21:55.856Z,3808.00
2018-12-17T10:22:55.672Z,4032.00
2018-12-17T10:23:56.317Z,4108.00
2018-12-17T10:24:55.859Z,4204.00
2018-12-17T10:25:55.577Z,4308.00
2018-12-17T10:26:55.551Z,4336.00
2018-12-17T10:27:55.512Z,4308.00
2018-12-17T10:28:55.473Z,4208.00
2018-12-17T10:29:55.490Z,4204.00
2018-12-17T10:30:55.454Z,4212.00
2018-12-17T10:31:55.383Z,4228.00
2018-12-17T10:32:55.346Z,4368.00
2018-12-17T10:33:55.312Z,4436.00
2018-12-17T10:34:55.278Z,4336.00
2018-12-17T10:35:55.316Z,4264.00
2018-12-17T10:36:55.209Z,4340.00
2018-12-17T10:37:55.177Z,4520.00
2018-12-17T10:38:55.811Z,4744.00
2018-12-17T10:39:55.106Z,4820.00
2018-12-17T10:40:55.126Z,4604.00
2018-12-17T10:41:55.107Z,4412.00
2018-12-17T10:42:55.011Z,4484.00
2018-12-17T10:43:55.363Z,4716.00
2018-12-17T10:44:54.944Z,5000.00
2018-12-17T10:45:54.916Z,5248.00
2018-12-17T10:46:54.883Z,5432.00
2018-12-17T10:47:54.886Z,5428.00
2018-12-17T10:48:55.803Z,5360.00
2018-12-17T10:49:55.304Z,5264.00
2018-12-17T10:50:54.797Z,5188.00
2018-12-17T10:51:55.305Z,5164.00
2018-12-17T10:52:54.681Z,5208.00
2018-12-17T10:53:55.310Z,5272.00
2018-12-17T10:54:54.638Z,5320.00
2018-12-17T10:55:54.623Z,5276.00
2018-12-17T10:56:54.540Z,5232.00
2018-12-17T10:57:54.511Z,5244.00
2018-12-17T10:58:54.543Z,5304.00
2018-12-17T10:59:54.450Z,5348.00
2018-12-17T11:00:54.410Z,5384.00
2018-12-17T11:01:54.376Z,5400.00
2018-12-17T11:02:54.343Z,5400.00
2018-12-17T11:03:54.352Z,5404.00
2018-12-17T11:04:54.812Z,5400.00
2018-12-17T11:05:54.805Z,5364.00
2018-12-17T11:06:54.810Z,5348.00
2018-12-17T11:07:54.361Z,5312.00
2018-12-17T11:08:54.810Z,5296.00
2018-12-17T11:09:54.116Z,5288.00
2018-12-17T11:10:54.098Z,5244.00
2018-12-17T11:11:54.045Z,5160.00
2018-12-17T11:12:54.073Z,5096.00
2018-12-17T11:13:53.978Z,5108.00
2018-12-17T11:14:54.025Z,5152.00
2018-12-17T11:15:53.913Z,5148.00
2018-12-17T11:16:54.717Z,5152.00
2018-12-17T11:17:53.889Z,5156.00
2018-12-17T11:18:53.813Z,5116.00
2018-12-17T11:19:53.783Z,5052.00
2018-12-17T11:20:53.787Z,5016.00
2018-12-17T11:21:53.713Z,5004.00
2018-12-17T11:22:53.681Z,5028.00
2018-12-17T11:23:53.694Z,5080.00
2018-12-17T11:24:53.611Z,5140.00
2018-12-17T11:25:53.583Z,5188.00
2018-12-17T11:26:53.604Z,5236.00
2018-12-17T11:27:53.512Z,5336.00
2018-12-17T11:28:54.307Z,5436.00
2018-12-17T11:29:53.447Z,5460.00
2018-12-17T11:30:53.453Z,5384.00
2018-12-17T11:31:53.381Z,5328.00
2018-12-17T11:32:53.349Z,5304.00
2018-12-17T11:33:53.326Z,5324.00
2018-12-17T11:34:53.313Z,5368.00
2018-12-17T11:35:53.297Z,5412.00
2018-12-17T11:36:53.265Z,5460.00
2018-12-17T11:37:53.195Z,5484.00
2018-12-17T11:38:53.153Z,5392.00
2018-12-17T11:39:53.120Z,5220.00
2018-12-17T11:40:53.090Z,5056.00
2018-12-17T11:41:53.135Z,4968.00
2018-12-17T11:42:53.022Z,4848.00
2018-12-17T11:43:52.990Z,4784.00
2018-12-17T11:44:52.958Z,4736.00
2018-12-17T11:45:52.933Z,4676.00
2018-12-17T11:46:52.955Z,4608.00
2018-12-17T11:47:52.858Z,4512.00
2018-12-17T11:48:53.811Z,4516.00
2018-12-17T11:49:52.796Z,4564.00
2018-12-17T11:50:52.760Z,4496.00
2018-12-17T11:51:52.766Z,4444.00
2018-12-17T11:52:52.704Z,4452.00
2018-12-17T11:53:52.655Z,4416.00
2018-12-17T11:54:52.625Z,4388.00
2018-12-17T11:55:52.593Z,4408.00
2018-12-17T11:56:52.607Z,4384.00
2018-12-17T11:57:52.576Z,4272.00
2018-12-17T11:58:52.500Z,3960.00
2018-12-17T11:59:52.463Z,3672.00
2018-12-17T12:00:53.954Z,3828.00
2018-12-17T12:01:52.395Z,4192.00
2018-12-17T12:02:58.927Z,4416.00
2018-12-17T12:03:52.380Z,4492.00
2018-12-17T12:04:52.306Z,4448.00
2018-12-17T12:05:52.264Z,4156.00
2018-12-17T12:06:52.231Z,3748.00
2018-12-17T12:07:52.271Z,3604.00
2018-12-17T12:08:52.161Z,3532.00
2018-12-17T12:09:52.131Z,3408.00
2018-12-17T12:10:52.099Z,3396.00
2018-12-17T12:11:52.069Z,3488.00
2018-12-17T12:12:52.116Z,3600.00
2018-12-17T12:13:52.001Z,3664.00
2018-12-17T12:14:51.962Z,3672.00
2018-12-17T12:15:52.816Z,3472.00
2018-12-17T12:16:51.901Z,3220.00
2018-12-17T12:17:51.911Z,3136.00
2018-12-17T12:18:51.877Z,3244.00
2018-12-17T12:19:51.799Z,3384.00
2018-12-17T12:20:51.779Z,3252.00
2018-12-17T12:21:51.732Z,3036.00
2018-12-17T12:22:51.700Z,2812.00
2018-12-17T12:23:51.713Z,2580.00
2018-12-17T12:24:51.633Z,2524.00
2018-12-17T12:25:51.603Z,2708.00
2018-12-17T12:26:51.567Z,2968.00
2018-12-17T12:27:51.540Z,3152.00
2018-12-17T12:28:51.559Z,3176.00
2018-12-17T12:29:51.608Z,3152.00
2018-12-17T12:30:51.458Z,3272.00
2018-12-17T12:31:51.403Z,3480.00
2018-12-17T12:32:51.370Z,3652.00
2018-12-17T12:33:51.379Z,3752.00
2018-12-17T12:34:51.306Z,3736.00
2018-12-17T12:35:51.268Z,3680.00
2018-12-17T12:36:51.241Z,3688.00
2018-12-17T12:37:51.206Z,3740.00
2018-12-17T12:38:51.220Z,3848.00
2018-12-17T12:39:51.258Z,3972.00
2018-12-17T12:40:51.109Z,4176.00
2018-12-17T12:41:51.126Z,4396.00
2018-12-17T12:42:51.863Z,4404.00
2018-12-17T12:43:51.393Z,4104.00
2018-12-17T12:44:50.978Z,3620.00